Time;durP1;ratioP1;P1;durP2;ratioP2;P2;SDS_P1;SDS_P2;PMS_P1;PMS_P2;Temp;Humidity;BMP_temperature;BMP_pressure;BME280_temperature;BME280_humidity;BME280_pressure;Samples;Min_cycle;Max_cycle;Signal;HPM_P1;HPM_P2
2021/03/17 00:00:28;;;;;;;5.97;3.30;;;10.50;99.90;;;;;;5057099;28;20033;-69
2021/03/17 00:02:54;;;;;;;8.10;2.80;;;10.50;99.90;;;;;;5057336;28;20025;-68
2021/03/17 00:05:26;;;;;;;6.72;3.08;;;10.40;99.90;;;;;;5057173;28;20568;-69
2021/03/17 00:07:52;;;;;;;10.13;3.33;;;10.70;99.90;;;;;;5055793;28;20093;-69
2021/03/17 00:10:19;;;;;;;6.35;3.15;;;10.50;99.90;;;;;;5057371;28;20363;-68
2021/03/17 00:12:46;;;;;;;10.55;4.13;;;10.50;99.90;;;;;;5057472;28;20044;-68
2021/03/17 00:15:13;;;;;;;8.98;3.20;;;10.60;99.90;;;;;;5057341;28;20040;-68
2021/03/17 00:17:39;;;;;;;9.13;3.47;;;10.50;99.90;;;;;;5057134;28;20029;-68
2021/03/17 00:20:10;;;;;;;5.18;2.90;;;10.50;99.90;;;;;;5055820;28;20021;-68
2021/03/17 00:22:36;;;;;;;5.80;3.10;;;10.70;99.90;;;;;;5056862;28;20025;-68
2021/03/17 00:25:02;;;;;;;7.68;3.25;;;10.60;99.90;;;;;;5057094;28;20032;-68
2021/03/17 00:27:28;;;;;;;8.77;3.50;;;10.50;99.90;;;;;;5057195;28;20028;-68
2021/03/17 00:29:54;;;;;;;9.68;3.13;;;10.50;99.90;;;;;;5056946;28;20477;-68
2021/03/17 00:32:20;;;;;;;9.90;3.88;;;10.40;99.90;;;;;;5057431;28;20033;-68
2021/03/17 00:34:46;;;;;;;11.65;3.95;;;10.40;99.90;;;;;;5051605;28;20029;-68
2021/03/17 00:37:11;;;;;;;6.88;3.50;;;10.40;99.90;;;;;;5057025;28;20072;-69
2021/03/17 00:39:37;;;;;;;12.45;3.92;;;10.40;99.90;;;;;;5056718;28;20068;-68
2021/03/17 00:42:03;;;;;;;9.40;3.92;;;10.30;99.90;;;;;;5056965;28;20033;-69
2021/03/17 00:44:29;;;;;;;9.05;3.45;;;10.30;99.90;;;;;;5056939;28;20017;-69
2021/03/17 00:46:55;;;;;;;9.38;3.13;;;10.30;99.90;;;;;;5057048;28;20024;-69
2021/03/17 00:49:21;;;;;;;6.93;3.25;;;10.10;99.90;;;;;;5056926;28;20036;-68
2021/03/17 00:51:47;;;;;;;7.68;3.75;;;10.20;99.90;;;;;;5057080;28;20024;-68
2021/03/17 00:54:12;;;;;;;;;;;10.10;99.90;;;;;;5057093;28;20472;-69
2021/03/17 00:56:38;;;;;;;12.43;3.92;;;10.10;99.90;;;;;;5057275;28;19931;-68
2021/03/17 00:59:04;;;;;;;6.15;3.45;;;10.30;99.90;;;;;;5056530;28;20029;-69
2021/03/17 01:01:30;;;;;;;;;;;10.10;99.90;;;;;;5057232;28;20067;-69
2021/03/17 01:03:55;;;;;;;9.80;3.97;;;10.20;99.90;;;;;;5056946;28;19944;-68
2021/03/17 01:06:21;;;;;;;5.38;3.53;;;10.10;99.90;;;;;;5056822;28;20040;-68
2021/03/17 01:08:47;;;;;;;7.35;3.53;;;10.10;99.90;;;;;;5056687;28;20473;-68
2021/03/17 01:11:14;;;;;;;10.90;3.97;;;10.20;99.90;;;;;;5056910;28;20025;-68
2021/03/17 01:13:40;;;;;;;8.85;4.05;;;10.20;99.90;;;;;;5056715;28;20070;-69
2021/03/17 01:16:06;;;;;;;7.68;3.65;;;10.00;99.90;;;;;;5060021;28;20558;-68
2021/03/17 01:18:33;;;;;;;7.55;4.88;;;10.00;99.90;;;;;;5060393;28;20032;-69
2021/03/17 01:20:59;;;;;;;8.07;3.35;;;9.80;99.90;;;;;;5060213;28;20385;-68
2021/03/17 01:23:24;;;;;;;9.05;4.07;;;9.70;99.90;;;;;;5060102;28;20013;-69
2021/03/17 01:25:50;;;;;;;6.53;3.58;;;9.50;99.90;;;;;;5060505;28;20417;-68
2021/03/17 01:28:16;;;;;;;;;;;9.50;99.90;;;;;;5060652;28;20051;-68
2021/03/17 01:30:45;;;;;;;10.00;4.18;;;9.50;99.90;;;;;;5060362;28;20319;-68
2021/03/17 01:33:12;;;;;;;10.10;3.60;;;9.40;99.90;;;;;;5060102;28;20032;-68
2021/03/17 01:35:43;;;;;;;13.40;3.90;;;9.40;99.90;;;;;;5055219;28;20021;-68
2021/03/17 01:38:08;;;;;;;8.07;4.45;;;9.40;99.90;;;;;;5059793;28;20439;-68
2021/03/17 01:40:36;;;;;;;;;;;9.30;99.90;;;;;;5060566;28;20143;-68
2021/03/17 01:43:02;;;;;;;12.10;3.40;;;9.30;99.90;;;;;;5059908;28;19970;-69
2021/03/17 01:45:27;;;;;;;;;;;9.30;99.90;;;;;;5060615;28;20036;-68
2021/03/17 01:47:54;;;;;;;7.78;3.95;;;9.00;99.90;;;;;;5059908;28;19999;-68
2021/03/17 01:50:31;;;;;;;11.23;4.25;;;9.20;99.90;;;;;;5060104;28;20027;-68
2021/03/17 01:53:02;;;;;;;9.70;4.20;;;9.10;99.90;;;;;;5059727;28;20109;-68
2021/03/17 01:55:28;;;;;;;10.38;4.00;;;8.90;99.90;;;;;;5059823;28;20028;-68
2021/03/17 01:57:54;;;;;;;;;;;8.90;99.90;;;;;;5060245;28;20025;-68
2021/03/17 02:00:20;;;;;;;12.23;5.15;;;9.00;99.90;;;;;;5059573;28;19923;-68
2021/03/17 02:02:51;;;;;;;11.27;4.15;;;8.80;99.90;;;;;;5058394;28;20024;-68
2021/03/17 02:05:24;;;;;;;9.20;4.05;;;9.00;99.90;;;;;;5060065;28;20113;-68
2021/03/17 02:07:53;;;;;;;12.55;5.50;;;8.90;99.90;;;;;;5059158;28;20021;-68
2021/03/17 02:10:19;;;;;;;9.50;4.22;;;9.00;99.90;;;;;;5059446;28;20036;-68
2021/03/17 02:12:44;;;;;;;;;;;9.00;99.90;;;;;;5060142;28;20017;-68
2021/03/17 02:15:46;;;;;;;12.85;3.75;;;9.20;99.90;;;;;;5059420;28;19905;-68
2021/03/17 02:18:37;;;;;;;16.45;5.38;;;9.30;99.90;;;;;;5058327;28;20445;-69
2021/03/17 02:21:51;;;;;;;11.30;3.92;;;9.40;99.90;;;;;;5059109;28;20481;-68
2021/03/17 02:24:28;;;;;;;8.07;3.78;;;9.40;99.90;;;;;;5059248;28;20096;-68
2021/03/17 02:27:31;;;;;;;9.38;4.63;;;9.60;99.90;;;;;;5058833;28;20433;-68
2021/03/17 02:30:16;;;;;;;11.73;4.63;;;9.60;99.90;;;;;;5059080;28;20110;-69
2021/03/17 02:33:08;;;;;;;12.25;5.57;;;9.60;99.90;;;;;;5059207;28;20031;-69
2021/03/17 02:35:35;;;;;;;16.52;5.93;;;9.70;99.90;;;;;;5055543;28;20029;-68
2021/03/17 02:38:08;;;;;;;14.73;6.35;;;9.60;99.90;;;;;;5057348;28;20149;-69
2021/03/17 02:40:36;;;;;;;15.90;5.63;;;9.60;99.90;;;;;;5057416;28;20029;-68
2021/03/17 02:43:26;;;;;;;11.18;5.70;;;9.60;99.90;;;;;;5058771;28;20025;-68
2021/03/17 02:45:56;;;;;;;11.18;6.10;;;9.60;99.90;;;;;;5057475;28;20124;-68
2021/03/17 02:48:31;;;;;;;11.30;6.07;;;9.60;99.90;;;;;;5059011;28;20547;-68
2021/03/17 02:51:03;;;;;;;14.05;5.85;;;9.40;99.90;;;;;;5057155;28;20029;-68
2021/03/17 02:53:32;;;;;;;11.02;6.30;;;9.30;99.90;;;;;;5058714;28;20028;-68
2021/03/17 02:56:04;;;;;;;18.98;6.22;;;9.10;99.90;;;;;;5057220;28;20029;-68
2021/03/17 02:58:31;;;;;;;14.32;6.25;;;9.10;99.90;;;;;;5058870;28;20090;-68
2021/03/17 03:00:58;;;;;;;14.77;6.45;;;9.00;99.90;;;;;;5058139;28;20048;-68
2021/03/17 03:03:28;;;;;;;17.45;8.68;;;8.90;99.90;;;;;;5058607;28;20021;-68
2021/03/17 03:05:56;;;;;;;12.10;6.05;;;8.80;99.90;;;;;;5058352;28;20049;-68
2021/03/17 03:08:25;;;;;;;11.15;5.93;;;8.80;99.90;;;;;;5058254;28;20021;-68
2021/03/17 03:10:53;;;;;;;18.85;8.60;;;8.80;99.90;;;;;;5058569;28;20021;-68
2021/03/17 03:13:19;;;;;;;16.75;7.10;;;8.80;99.90;;;;;;5057001;28;20025;-68
2021/03/17 03:15:46;;;;;;;11.75;6.88;;;8.70;99.90;;;;;;5058520;28;20092;-68
2021/03/17 03:18:13;;;;;;;17.60;7.25;;;8.60;99.90;;;;;;5058361;28;20051;-68
2021/03/17 03:20:40;;;;;;;16.13;6.47;;;8.50;99.90;;;;;;5058035;28;20044;-68
2021/03/17 03:23:07;;;;;;;17.58;7.70;;;8.60;99.90;;;;;;5057843;28;20043;-68
2021/03/17 03:25:34;;;;;;;13.95;6.53;;;8.40;99.90;;;;;;5058189;28;20029;-68
2021/03/17 03:28:11;;;;;;;12.00;5.90;;;8.40;99.90;;;;;;5056700;28;20021;-68
2021/03/17 03:30:39;;;;;;;11.57;6.72;;;8.30;99.90;;;;;;5057908;28;20021;-68
2021/03/17 03:33:06;;;;;;;11.98;6.22;;;8.20;99.90;;;;;;5058111;28;20021;-68
2021/03/17 03:35:31;;;;;;;9.32;6.38;;;8.20;99.90;;;;;;5054290;28;20131;-68
2021/03/17 03:37:57;;;;;;;;;;;8.00;99.90;;;;;;5057282;28;20504;-68
2021/03/17 03:40:23;;;;;;;9.27;4.72;;;8.10;99.90;;;;;;5057665;28;20357;-68
2021/03/17 03:42:49;;;;;;;;;;;8.20;99.90;;;;;;5056804;28;20052;-68
2021/03/17 03:45:19;;;;;;;12.00;6.00;;;7.90;99.90;;;;;;5057916;28;20007;-68
2021/03/17 03:47:46;;;;;;;12.60;5.85;;;7.90;99.90;;;;;;5057610;28;20021;-68
2021/03/17 03:50:15;;;;;;;12.43;5.93;;;7.90;99.90;;;;;;5057803;28;20024;-68
2021/03/17 03:53:04;;;;;;;17.20;6.72;;;7.70;99.90;;;;;;5055844;28;20059;-68
2021/03/17 03:56:07;;;;;;;11.35;5.47;;;7.90;99.90;;;;;;5057761;28;20071;-68
2021/03/17 03:58:38;;;;;;;15.85;6.43;;;7.70;99.90;;;;;;5057731;28;20036;-68
2021/03/17 04:01:25;;;;;;;11.70;6.63;;;7.80;99.90;;;;;;5057270;28;20105;-68
2021/03/17 04:03:55;;;;;;;20.98;7.28;;;7.70;99.90;;;;;;5056462;28;20029;-68
2021/03/17 04:06:21;;;;;;;15.05;8.48;;;7.70;99.90;;;;;;5057375;28;20028;-68
2021/03/17 04:08:49;;;;;;;15.75;8.13;;;7.70;99.90;;;;;;5057062;28;20037;-68
2021/03/17 04:11:16;;;;;;;16.10;7.60;;;7.60;99.90;;;;;;5057413;28;20052;-68
2021/03/17 04:13:44;;;;;;;15.88;7.05;;;7.70;99.90;;;;;;5057353;28;20025;-68
2021/03/17 04:16:12;;;;;;;18.20;9.02;;;7.60;99.90;;;;;;5057366;28;20029;-68
2021/03/17 04:18:45;;;;;;;18.10;8.68;;;7.60;99.90;;;;;;5057418;28;20029;-68
2021/03/17 04:21:25;;;;;;;13.18;7.85;;;7.60;99.90;;;;;;5057141;28;20033;-68
2021/03/17 04:23:53;;;;;;;19.98;8.38;;;7.50;99.90;;;;;;5055592;28;20040;-68
2021/03/17 04:26:20;;;;;;;24.33;9.35;;;7.60;99.90;;;;;;5057156;28;20147;-68
2021/03/17 04:28:48;;;;;;;22.73;9.30;;;7.60;99.90;;;;;;5055822;28;20496;-68
2021/03/17 04:31:16;;;;;;;14.40;8.30;;;7.60;99.90;;;;;;5057129;28;20500;-68
2021/03/17 04:33:43;;;;;;;17.10;8.45;;;7.50;99.90;;;;;;5057279;28;20025;-68
2021/03/17 04:36:11;;;;;;;21.90;9.55;;;7.50;99.90;;;;;;5053009;28;20102;-68
2021/03/17 04:38:39;;;;;;;21.75;10.45;;;7.40;99.90;;;;;;5056941;28;20029;-68
2021/03/17 04:41:07;;;;;;;19.90;10.82;;;7.50;99.90;;;;;;5056946;28;20481;-68
2021/03/17 04:43:37;;;;;;;19.77;10.30;;;7.30;99.90;;;;;;5055725;28;20385;-68
2021/03/17 04:46:03;;;;;;;17.25;8.95;;;7.30;99.90;;;;;;5056961;28;20021;-68
2021/03/17 04:48:30;;;;;;;15.40;9.20;;;7.30;99.90;;;;;;5057230;28;20057;-68
2021/03/17 04:50:58;;;;;;;23.77;9.45;;;7.30;99.90;;;;;;5059817;28;20108;-68
2021/03/17 04:53:25;;;;;;;15.10;8.10;;;7.30;99.90;;;;;;5060764;28;20080;-68
2021/03/17 04:55:51;;;;;;;15.82;9.32;;;7.20;99.90;;;;;;5060863;28;20047;-68
2021/03/17 04:58:21;;;;;;;14.13;8.75;;;7.10;99.90;;;;;;5060947;28;20021;-68
2021/03/17 05:00:48;;;;;;;23.80;9.60;;;7.10;99.90;;;;;;5060435;28;20106;-68
2021/03/17 05:03:16;;;;;;;23.00;10.43;;;6.90;99.90;;;;;;5060823;28;20092;-68
2021/03/17 05:05:44;;;;;;;24.00;11.07;;;7.10;99.90;;;;;;5060620;28;20098;-68
2021/03/17 05:08:12;;;;;;;21.90;11.30;;;7.00;99.90;;;;;;5060446;28;20013;-68
2021/03/17 05:10:40;;;;;;;18.90;10.43;;;7.10;99.90;;;;;;5060604;28;20021;-68
2021/03/17 05:13:11;;;;;;;22.77;11.07;;;7.10;99.90;;;;;;5059326;28;20025;-68
2021/03/17 05:15:38;;;;;;;23.60;11.90;;;7.10;99.90;;;;;;5059373;28;20374;-68
2021/03/17 05:18:06;;;;;;;22.92;11.30;;;7.10;99.90;;;;;;5060551;28;20468;-68
2021/03/17 05:20:33;;;;;;;20.85;10.32;;;7.00;99.90;;;;;;5060290;28;20025;-68
2021/03/17 05:23:00;;;;;;;18.95;10.45;;;7.00;99.90;;;;;;5060135;28;20071;-68
2021/03/17 05:25:27;;;;;;;21.00;9.13;;;6.90;99.90;;;;;;5059165;28;20173;-68
2021/03/17 05:27:56;;;;;;;26.67;12.18;;;6.90;99.90;;;;;;5060381;28;20017;-68
2021/03/17 05:30:24;;;;;;;20.42;11.30;;;6.90;99.90;;;;;;5060381;28;20032;-68
2021/03/17 05:32:52;;;;;;;21.63;11.38;;;7.00;99.90;;;;;;5059158;28;20504;-68
2021/03/17 05:35:19;;;;;;;26.55;16.35;;;6.90;99.90;;;;;;5056600;28;20075;-68
2021/03/17 05:37:48;;;;;;;23.20;12.65;;;7.00;99.90;;;;;;5058469;28;20027;-68
2021/03/17 05:40:16;;;;;;;21.50;10.90;;;7.00;99.90;;;;;;5060097;28;20392;-68
2021/03/17 05:42:43;;;;;;;28.25;11.75;;;7.00;99.90;;;;;;5058618;28;20027;-68
2021/03/17 05:45:18;;;;;;;18.40;9.20;;;6.90;99.90;;;;;;5060148;28;20021;-68
2021/03/17 05:47:46;;;;;;;16.15;9.70;;;7.00;99.90;;;;;;5060041;28;20040;-68
2021/03/17 05:50:15;;;;;;;20.35;9.65;;;7.10;99.90;;;;;;5059897;28;20560;-68
2021/03/17 05:52:42;;;;;;;19.50;10.93;;;7.00;99.90;;;;;;5058110;28;20021;-68
2021/03/17 05:55:09;;;;;;;16.75;10.63;;;7.00;99.90;;;;;;5059828;28;20111;-68
2021/03/17 05:57:37;;;;;;;25.83;11.88;;;6.90;99.90;;;;;;5059681;28;20108;-68
2021/03/17 06:00:09;;;;;;;22.48;11.20;;;6.90;99.90;;;;;;5059608;28;20052;-68
2021/03/17 06:02:37;;;;;;;15.80;10.30;;;6.90;99.90;;;;;;5059135;28;20377;-68
2021/03/17 06:05:08;;;;;;;25.45;10.38;;;6.90;99.90;;;;;;5058355;28;20098;-67
2021/03/17 06:08:09;;;;;;;28.92;10.45;;;6.90;99.90;;;;;;5059705;28;20021;-67
2021/03/17 06:10:36;;;;;;;11.20;7.78;;;6.80;99.90;;;;;;5059007;28;20417;-68
2021/03/17 06:13:13;;;;;;;20.05;9.75;;;6.70;99.90;;;;;;5055531;28;20032;-68
2021/03/17 06:16:10;;;;;;;19.73;10.50;;;6.70;99.90;;;;;;5059118;28;20017;-68
2021/03/17 06:18:45;;;;;;;19.05;8.98;;;6.60;99.90;;;;;;5043855;28;20048;-68
2021/03/17 06:21:18;;;;;;;22.80;10.10;;;6.60;99.90;;;;;;5058158;28;20049;-68
2021/03/17 06:23:48;;;;;;;15.70;10.10;;;6.60;99.90;;;;;;5058913;28;20039;-75
2021/03/17 06:26:15;;;;;;;18.40;11.18;;;6.60;99.90;;;;;;5058999;28;20452;-68
2021/03/17 06:28:42;;;;;;;19.83;9.23;;;6.50;99.90;;;;;;5058725;28;20449;-67
2021/03/17 06:31:10;;;;;;;18.33;9.93;;;6.50;99.90;;;;;;5059184;28;20104;-68
2021/03/17 06:33:41;;;;;;;27.42;9.68;;;6.50;99.90;;;;;;5058983;28;20033;-68
2021/03/17 06:36:14;;;;;;;17.70;9.75;;;6.50;99.90;;;;;;5055467;28;20035;-68
2021/03/17 06:38:41;;;;;;;24.88;10.52;;;6.60;99.90;;;;;;5058743;28;20029;-68
2021/03/17 06:41:06;;;;;;;;;;;6.50;99.90;;;;;;5059217;28;20048;-68
2021/03/17 06:43:43;;;;;;;17.13;9.20;;;6.50;99.90;;;;;;5058925;28;19912;-68
2021/03/17 06:46:20;;;;;;;23.20;9.60;;;6.70;99.90;;;;;;5058983;28;20029;-68
2021/03/17 06:48:45;;;;;;;18.77;9.15;;;6.70;99.90;;;;;;5058723;28;20098;-68
2021/03/17 06:51:15;;;;;;;;;;;6.50;99.90;;;;;;5059198;28;20115;-68
2021/03/17 06:53:46;;;;;;;26.52;11.80;;;6.70;99.90;;;;;;5058639;28;19908;-68
2021/03/17 06:56:23;;;;;;;12.85;8.57;;;6.70;99.90;;;;;;5058796;28;20496;-68
2021/03/17 06:58:54;;;;;;;15.20;8.80;;;6.80;99.90;;;;;;5057039;28;20397;-68
2021/03/17 07:01:36;;;;;;;19.67;9.88;;;7.00;99.90;;;;;;5057390;28;20029;-68
2021/03/17 07:04:11;;;;;;;16.25;8.82;;;6.90;99.90;;;;;;5058456;28;20029;-68
2021/03/17 07:06:39;;;;;;;29.95;9.00;;;7.00;99.90;;;;;;5058407;28;20021;-68
2021/03/17 07:09:27;;;;;;;24.60;10.07;;;7.00;99.90;;;;;;5056959;28;20048;-68
2021/03/17 07:12:05;;;;;;;19.73;9.52;;;8.00;99.90;;;;;;5058317;28;20432;-68
2021/03/17 07:14:45;;;;;;;23.38;9.70;;;7.60;99.90;;;;;;5058441;28;20393;-68
2021/03/17 07:17:28;;;;;;;17.10;9.55;;;7.60;99.90;;;;;;5058488;28;20087;-68
2021/03/17 07:19:55;;;;;;;13.80;8.30;;;7.80;99.90;;;;;;5058215;28;20031;-68
2021/03/17 07:22:22;;;;;;;17.52;9.63;;;7.80;99.90;;;;;;5056445;28;20029;-68
2021/03/17 07:24:53;;;;;;;21.02;7.82;;;8.00;99.90;;;;;;5058024;28;20505;-68
2021/03/17 07:27:24;;;;;;;17.08;7.45;;;8.10;99.90;;;;;;5058547;28;20017;-68
2021/03/17 07:30:03;;;;;;;13.88;6.95;;;8.10;99.90;;;;;;5057861;28;20017;-69
2021/03/17 07:32:56;;;;;;;14.43;7.85;;;8.10;99.90;;;;;;5056715;28;20021;-68
2021/03/17 07:35:37;;;;;;;19.58;7.00;;;8.00;99.90;;;;;;5054737;28;20044;-68
2021/03/17 07:38:07;;;;;;;15.55;7.45;;;8.10;99.90;;;;;;5057555;28;20500;-68
2021/03/17 07:40:36;;;;;;;14.52;8.48;;;8.20;99.90;;;;;;5056321;28;20036;-68
2021/03/17 07:43:03;;;;;;;16.00;7.22;;;8.50;99.90;;;;;;5057775;28;20076;-68
2021/03/17 07:45:33;;;;;;;16.05;6.85;;;8.70;99.90;;;;;;5056709;28;20044;-68
2021/03/17 07:48:03;;;;;;;16.80;7.05;;;9.00;99.90;;;;;;5058167;28;20032;-68
2021/03/17 07:50:30;;;;;;;17.67;6.78;;;9.30;99.90;;;;;;5056107;28;20116;-68
2021/03/17 07:53:00;;;;;;;17.38;6.60;;;9.60;99.90;;;;;;5057605;28;20374;-68
2021/03/17 07:55:28;;;;;;;13.15;5.88;;;9.80;99.90;;;;;;5057624;28;20460;-68
2021/03/17 07:57:56;;;;;;;20.55;5.78;;;9.90;99.90;;;;;;5057615;28;20120;-69
2021/03/17 08:00:23;;;;;;;15.65;5.20;;;10.20;99.90;;;;;;5057299;28;20531;-68
2021/03/17 08:02:51;;;;;;;12.20;5.40;;;10.50;99.90;;;;;;5057509;28;20025;-68
2021/03/17 08:05:16;;;;;;;15.88;5.40;;;10.70;99.90;;;;;;5057383;28;20381;-68
2021/03/17 08:07:43;;;;;;;17.58;5.85;;;11.00;99.90;;;;;;5057131;28;20024;-68
2021/03/17 08:10:09;;;;;;;16.27;5.50;;;11.20;99.90;;;;;;5056226;28;20070;-68
2021/03/17 08:12:36;;;;;;;18.65;6.22;;;11.40;99.90;;;;;;5057754;28;20021;-68
2021/03/17 08:15:04;;;;;;;15.40;4.78;;;11.60;99.90;;;;;;5056175;28;20029;-69
2021/03/17 08:17:35;;;;;;;16.60;5.30;;;11.90;99.90;;;;;;5055998;28;20025;-69
2021/03/17 08:20:20;;;;;;;19.13;5.80;;;12.00;99.90;;;;;;5056111;28;20033;-68
2021/03/17 08:22:47;;;;;;;22.88;4.70;;;12.20;99.90;;;;;;5056809;28;20432;-68
2021/03/17 08:25:35;;;;;;;19.70;5.47;;;12.30;99.90;;;;;;5056812;28;20021;-68
2021/03/17 08:28:20;;;;;;;16.05;5.15;;;12.70;99.90;;;;;;5057127;28;20037;-68
2021/03/17 08:30:46;;;;;;;16.90;5.20;;;13.00;99.90;;;;;;5055656;28;20079;-68
2021/03/17 08:33:33;;;;;;;20.13;5.07;;;13.20;99.90;;;;;;5056985;28;20025;-68
2021/03/17 08:36:10;;;;;;;14.05;4.25;;;13.30;99.90;;;;;;5052270;28;20092;-68
2021/03/17 08:38:45;;;;;;;14.35;4.53;;;13.30;99.90;;;;;;5055599;28;20051;-68
2021/03/17 08:41:11;;;;;;;19.08;5.40;;;13.20;99.90;;;;;;5055648;28;20036;-68
2021/03/17 08:43:37;;;;;;;18.17;4.00;;;13.20;99.90;;;;;;5055823;28;20047;-68
2021/03/17 08:46:19;;;;;;;14.70;4.28;;;13.30;99.90;;;;;;5057288;28;20405;-68
2021/03/17 08:49:03;;;;;;;23.15;5.20;;;13.20;99.90;;;;;;5057008;28;20508;-68
2021/03/17 08:51:47;;;;;;;23.75;6.90;;;13.40;99.90;;;;;;5056979;28;20108;-69
2021/03/17 08:54:31;;;;;;;29.10;5.18;;;13.60;99.90;;;;;;5056635;28;20021;-69
2021/03/17 08:57:08;;;;;;;19.83;5.05;;;13.60;99.90;;;;;;5057115;28;20033;-68
2021/03/17 08:59:56;;;;;;;16.25;4.00;;;13.70;99.90;;;;;;5056824;28;20071;-68
2021/03/17 09:02:30;;;;;;;17.85;3.78;;;14.10;99.90;;;;;;5056934;28;20037;-69
2021/03/17 09:05:00;;;;;;;17.50;4.70;;;14.00;99.90;;;;;;5055586;28;20021;-68
2021/03/17 09:07:32;;;;;;;18.63;4.57;;;13.90;99.90;;;;;;5055092;28;20021;-68
2021/03/17 09:10:08;;;;;;;18.02;4.75;;;14.10;99.90;;;;;;5055516;28;20029;-68
2021/03/17 09:12:34;;;;;;;19.20;5.53;;;13.90;99.90;;;;;;5056678;28;20032;-68
2021/03/17 09:15:15;;;;;;;22.08;4.35;;;13.80;99.90;;;;;;5056850;28;20029;-68
2021/03/17 09:17:46;;;;;;;20.33;6.07;;;13.70;99.90;;;;;;5056719;28;20457;-68
2021/03/17 09:20:21;;;;;;;21.67;3.90;;;13.80;99.90;;;;;;5055303;28;20036;-69
2021/03/17 09:22:57;;;;;;;13.90;4.22;;;14.00;99.90;;;;;;5056290;28;20036;-68
2021/03/17 09:25:26;;;;;;;18.50;5.18;;;14.20;99.90;;;;;;5042952;28;20024;-68
2021/03/17 09:28:04;;;;;;;17.38;4.40;;;14.40;99.90;;;;;;5056594;28;20075;-68
2021/03/17 09:31:02;;;;;;;17.73;4.00;;;14.50;99.90;;;;;;5055266;28;20059;-68
2021/03/17 09:33:30;;;;;;;21.52;5.00;;;14.50;99.90;;;;;;5056700;28;20071;-68
2021/03/17 09:36:14;;;;;;;15.82;4.47;;;14.60;99.90;;;;;;5052470;28;20025;-68
2021/03/17 09:38:43;;;;;;;20.08;4.97;;;14.60;99.90;;;;;;5060062;28;20021;-68
2021/03/17 09:41:12;;;;;;;20.85;5.20;;;14.90;99.90;;;;;;5059970;28;20025;-68
2021/03/17 09:43:42;;;;;;;18.25;4.78;;;15.30;99.90;;;;;;5060130;28;20021;-68
2021/03/17 09:46:36;;;;;;;12.55;3.63;;;15.50;99.90;;;;;;5059342;28;20082;-68
2021/03/17 09:49:07;;;;;;;21.30;4.97;;;15.40;99.90;;;;;;5059809;28;20013;-68
2021/03/17 09:51:43;;;;;;;17.15;3.70;;;15.40;99.90;;;;;;5059861;28;20033;-69
2021/03/17 09:54:12;;;;;;;15.27;4.32;;;15.40;99.90;;;;;;5058285;28;20021;-68
2021/03/17 09:56:45;;;;;;;14.23;4.03;;;15.70;99.90;;;;;;5060226;28;20116;-69
2021/03/17 09:59:21;;;;;;;16.35;5.47;;;16.10;99.90;;;;;;5059723;28;20045;-69
2021/03/17 10:01:51;;;;;;;;;;;16.60;99.90;;;;;;5060088;28;20158;-69
2021/03/17 10:04:26;;;;;;;16.40;4.03;;;16.90;99.90;;;;;;5059997;28;19905;-68
2021/03/17 10:06:52;;;;;;;16.63;4.80;;;17.30;99.90;;;;;;5059442;28;20051;-68
2021/03/17 10:09:20;;;;;;;18.52;4.72;;;17.40;99.90;;;;;;5058288;28;20481;-69
2021/03/17 10:11:49;;;;;;;16.80;4.50;;;17.90;99.90;;;;;;5059541;28;20496;-68
2021/03/17 10:14:17;;;;;;;18.10;4.85;;;18.20;99.60;;;;;;5059505;28;20029;-69
2021/03/17 10:16:44;;;;;;;17.73;6.20;;;18.10;99.50;;;;;;5058097;28;20435;-68
2021/03/17 10:19:17;;;;;;;14.75;4.00;;;18.50;98.80;;;;;;5059507;28;20021;-69
2021/03/17 10:21:44;;;;;;;13.43;4.15;;;18.20;98.10;;;;;;5059242;28;20025;-68
2021/03/17 10:24:11;;;;;;;16.58;4.63;;;18.00;98.70;;;;;;5058992;28;20052;-69
2021/03/17 10:26:42;;;;;;;16.80;4.07;;;17.90;97.30;;;;;;5059151;28;20066;-69
2021/03/17 10:29:08;;;;;;;15.85;3.97;;;17.90;96.90;;;;;;5059103;28;20037;-69
2021/03/17 10:31:36;;;;;;;13.48;4.07;;;17.80;97.80;;;;;;5059605;28;20025;-68
2021/03/17 10:34:12;;;;;;;19.50;4.82;;;17.90;97.10;;;;;;5056764;28;20500;-69
2021/03/17 10:36:39;;;;;;;16.88;4.10;;;17.70;97.40;;;;;;5045947;28;20056;-69
2021/03/17 10:39:05;;;;;;;13.73;3.67;;;18.10;98.20;;;;;;5058667;28;20029;-69
2021/03/17 10:41:42;;;;;;;16.15;3.60;;;18.40;94.80;;;;;;5058986;28;20082;-69
2021/03/17 10:44:17;;;;;;;18.38;4.57;;;18.40;94.80;;;;;;5057620;28;20048;-69
2021/03/17 10:47:08;;;;;;;14.20;4.55;;;18.40;95.00;;;;;;5057572;28;20021;-69
2021/03/17 10:49:45;;;;;;;12.50;3.35;;;19.10;94.90;;;;;;5058667;28;20039;-69
2021/03/17 10:52:15;;;;;;;12.40;3.70;;;19.70;93.70;;;;;;5057020;28;20059;-69
2021/03/17 10:54:43;;;;;;;19.73;4.78;;;19.80;92.90;;;;;;5058809;28;20032;-69
2021/03/17 10:57:18;;;;;;;11.73;3.85;;;19.70;92.70;;;;;;5058957;28;20053;-69
2021/03/17 10:59:44;;;;;;;11.00;3.50;;;19.30;91.00;;;;;;5057092;28;20056;-69
2021/03/17 11:02:18;;;;;;;10.85;3.90;;;19.00;92.10;;;;;;5057138;28;20025;-69
2021/03/17 11:05:15;;;;;;;14.43;3.47;;;19.10;91.70;;;;;;5058691;28;20052;-69
2021/03/17 11:08:07;;;;;;;14.80;4.60;;;19.40;91.40;;;;;;5058309;28;20036;-69
2021/03/17 11:10:37;;;;;;;12.48;3.80;;;19.40;91.30;;;;;;5058469;28;20051;-69
2021/03/17 11:13:09;;;;;;;10.75;3.88;;;19.40;91.80;;;;;;5058346;28;20096;-69
2021/03/17 11:15:41;;;;;;;11.57;3.15;;;19.50;90.20;;;;;;5058470;28;20025;-69
2021/03/17 11:18:07;;;;;;;8.07;3.35;;;19.80;88.20;;;;;;5058611;28;20047;-69
2021/03/17 11:20:42;;;;;;;13.60;4.10;;;19.70;89.70;;;;;;5057040;28;20024;-69
2021/03/17 11:23:19;;;;;;;10.37;2.87;;;19.70;90.00;;;;;;5057899;28;20036;-69
2021/03/17 11:25:47;;;;;;;11.82;3.72;;;19.70;89.30;;;;;;5057997;28;20397;-69
2021/03/17 11:28:16;;;;;;;15.07;3.75;;;19.40;88.60;;;;;;5058065;28;20009;-69
2021/03/17 11:30:53;;;;;;;12.23;3.75;;;19.40;87.10;;;;;;5057934;28;20029;-69
2021/03/17 11:33:20;;;;;;;12.88;3.42;;;19.40;86.70;;;;;;5058383;28;20100;-69
2021/03/17 11:35:47;;;;;;;13.88;3.97;;;19.90;84.70;;;;;;5053937;28;20577;-69
2021/03/17 11:38:13;;;;;;;10.85;4.07;;;20.20;83.60;;;;;;5057580;28;20493;-69
2021/03/17 11:40:40;;;;;;;12.80;3.67;;;20.50;80.60;;;;;;5057727;28;20025;-69
2021/03/17 11:43:15;;;;;;;15.60;3.92;;;20.70;78.60;;;;;;5058151;28;20017;-69
2021/03/17 11:45:43;;;;;;;14.30;3.97;;;20.80;80.70;;;;;;5057884;28;20366;-69
2021/03/17 11:48:09;;;;;;;12.30;3.83;;;21.30;80.20;;;;;;5057872;28;20032;-69
2021/03/17 11:50:37;;;;;;;14.48;4.57;;;21.80;76.30;;;;;;5057484;28;20029;-69
2021/03/17 11:53:03;;;;;;;17.52;4.32;;;21.50;77.20;;;;;;5056588;28;20032;-69
2021/03/17 11:55:30;;;;;;;13.75;4.22;;;21.50;75.60;;;;;;5057687;28;20477;-69
2021/03/17 11:57:55;;;;;;;11.25;3.60;;;21.20;76.80;;;;;;5057867;28;20025;-69
2021/03/17 12:00:22;;;;;;;11.45;3.80;;;20.80;77.40;;;;;;5056570;28;20544;-69
2021/03/17 12:02:48;;;;;;;13.55;3.63;;;20.80;76.30;;;;;;5057550;28;20524;-69
2021/03/17 12:05:17;;;;;;;11.25;3.38;;;20.70;78.70;;;;;;5057565;28;20047;-70
2021/03/17 12:07:43;;;;;;;12.98;3.83;;;21.30;78.20;;;;;;5057215;28;20023;-70
2021/03/17 12:10:10;;;;;;;10.05;3.35;;;21.90;76.30;;;;;;5057507;28;20025;-70
2021/03/17 12:12:36;;;;;;;10.13;3.20;;;21.70;72.40;;;;;;5057470;28;20025;-70
2021/03/17 12:15:10;;;;;;;10.20;3.65;;;21.10;75.20;;;;;;5055928;28;20040;-69
2021/03/17 12:17:37;;;;;;;13.35;4.05;;;21.00;76.80;;;;;;5057399;28;20112;-70
2021/03/17 12:20:04;;;;;;;10.50;3.42;;;20.80;75.10;;;;;;5057278;28;20431;-69
2021/03/17 12:22:30;;;;;;;12.38;4.00;;;20.40;74.40;;;;;;5056656;28;20037;-70
2021/03/17 12:24:56;;;;;;;11.68;3.63;;;20.10;75.20;;;;;;5057104;28;20029;-69
2021/03/17 12:27:22;;;;;;;10.82;3.03;;;20.40;76.40;;;;;;5057257;28;20023;-70
2021/03/17 12:29:49;;;;;;;12.02;3.70;;;20.90;76.10;;;;;;5056045;28;20048;-70
2021/03/17 12:32:16;;;;;;;14.05;4.10;;;21.20;75.40;;;;;;5055891;28;20517;-70
2021/03/17 12:34:43;;;;;;;12.85;3.75;;;20.70;76.90;;;;;;5051891;28;20029;-70
2021/03/17 12:37:10;;;;;;;11.98;3.90;;;20.20;78.20;;;;;;5057077;28;20088;-70
2021/03/17 12:39:37;;;;;;;16.63;4.00;;;20.70;78.90;;;;;;5056985;28;20027;-70
2021/03/17 12:42:03;;;;;;;9.98;3.50;;;20.90;76.90;;;;;;5055737;28;20025;-70
2021/03/17 12:44:28;;;;;;;9.88;3.63;;;20.50;76.70;;;;;;5056979;28;20017;-70
2021/03/17 12:46:54;;;;;;;16.27;3.92;;;20.20;75.60;;;;;;5057175;28;20024;-69
2021/03/17 12:49:20;;;;;;;11.10;3.45;;;19.90;76.50;;;;;;5055567;28;20026;-70
2021/03/17 12:51:46;;;;;;;10.15;3.65;;;20.50;76.00;;;;;;5055332;28;20559;-70
2021/03/17 12:54:12;;;;;;;13.32;3.53;;;20.70;74.30;;;;;;5056858;28;20086;-70
2021/03/17 12:56:38;;;;;;;12.55;4.20;;;20.60;76.50;;;;;;5055665;28;20024;-70
2021/03/17 12:59:04;;;;;;;13.57;3.78;;;20.90;75.70;;;;;;5056803;28;20100;-70
2021/03/17 13:01:30;;;;;;;10.55;3.63;;;20.90;74.90;;;;;;5055490;28;20107;-70
2021/03/17 13:03:55;;;;;;;13.07;3.42;;;20.50;75.70;;;;;;5055731;28;20029;-70